createdAt,value
2022-10-23T00:20:21.023Z,21.10
2022-10-23T00:22:56.346Z,20.50
2022-10-23T00:25:34.198Z,20.50
2022-10-23T00:28:10.072Z,20.60
2022-10-23T00:30:48.021Z,20.80
2022-10-23T00:33:23.473Z,20.60
2022-10-23T00:35:58.853Z,20.70
2022-10-23T00:38:34.043Z,20.70
2022-10-23T00:41:14.934Z,20.80
2022-10-23T00:44:09.981Z,20.90
2022-10-23T00:46:46.455Z,21.10
2022-10-23T00:49:22.130Z,21.10
2022-10-23T00:52:00.354Z,21.20
2022-10-23T00:54:38.746Z,21.20
2022-10-23T00:57:18.294Z,21.10
2022-10-23T00:59:55.992Z,21.20
2022-10-23T01:02:31.567Z,21.20
2022-10-23T01:05:06.971Z,21.10
2022-10-23T01:07:47.741Z,21.10
2022-10-23T01:10:34.792Z,21.00
2022-10-23T01:13:17.061Z,21.10
2022-10-23T01:16:01.118Z,21.10
2022-10-23T01:18:48.979Z,20.90
2022-10-23T01:21:33.137Z,21.10
2022-10-23T01:24:17.195Z,21.10
2022-10-23T01:27:09.127Z,21.10
2022-10-23T01:29:49.517Z,21.10
2022-10-23T01:32:40.929Z,21.10
2022-10-23T01:35:21.093Z,21.10
2022-10-23T01:38:09.808Z,21.20
2022-10-23T01:48:50.701Z,21.10
2022-10-23T01:56:43.545Z,21.20
2022-10-23T02:07:13.318Z,21.40
2022-10-23T02:09:48.705Z,21.40
2022-10-23T02:12:34.734Z,21.50
2022-10-23T02:18:02.762Z,21.60
2022-10-23T02:23:24.795Z,21.70
2022-10-23T02:26:03.886Z,21.90
2022-10-23T02:28:47.810Z,21.80
2022-10-23T02:31:25.937Z,21.80
2022-10-23T02:36:39.641Z,21.90
2022-10-23T02:39:15.717Z,22.00
2022-10-23T02:41:55.662Z,22.00
2022-10-23T02:44:51.287Z,22.10
2022-10-23T02:47:49.612Z,22.20
2022-10-23T02:50:35.966Z,22.20
2022-10-23T02:53:19.204Z,22.20
2022-10-23T02:56:05.810Z,22.10
2022-10-23T02:58:47.802Z,22.20
2022-10-23T03:01:26.996Z,22.20
2022-10-23T03:04:05.283Z,22.20
2022-10-23T03:06:42.499Z,22.20
2022-10-23T03:09:24.083Z,22.20
2022-10-23T03:11:59.150Z,22.30
2022-10-23T03:14:53.527Z,22.20
2022-10-23T03:17:29.291Z,22.20
2022-10-23T03:20:07.451Z,22.10
2022-10-23T03:22:45.726Z,22.00
2022-10-23T03:25:21.379Z,22.00
2022-10-23T03:27:57.655Z,22.00
2022-10-23T03:30:33.758Z,21.90
2022-10-23T03:33:09.256Z,22.00
2022-10-23T03:35:46.046Z,22.00
2022-10-23T03:38:27.375Z,22.00
2022-10-23T03:41:04.105Z,22.00
2022-10-23T03:43:39.351Z,22.00
2022-10-23T03:46:15.205Z,22.00
2022-10-23T03:48:52.426Z,22.00
2022-10-23T03:51:28.044Z,21.90
2022-10-23T03:54:10.990Z,21.90
2022-10-23T03:56:48.293Z,21.90
2022-10-23T03:59:25.101Z,21.80
2022-10-23T04:02:01.430Z,21.80
2022-10-23T04:04:37.682Z,21.80
2022-10-23T04:07:12.780Z,21.70
2022-10-23T04:09:49.823Z,21.60
2022-10-23T04:12:25.092Z,21.60
2022-10-23T04:15:01.254Z,21.60
2022-10-23T04:17:36.955Z,21.70
2022-10-23T04:20:12.802Z,21.60
2022-10-23T04:22:47.837Z,21.70
2022-10-23T04:25:27.716Z,21.70
2022-10-23T04:28:02.926Z,21.70
2022-10-23T04:30:43.846Z,21.60
2022-10-23T04:33:20.377Z,21.50
2022-10-23T04:35:59.236Z,21.50
2022-10-23T04:38:35.730Z,21.50
2022-10-23T04:41:15.654Z,21.40
2022-10-23T04:43:50.979Z,21.50
2022-10-23T04:46:26.280Z,21.50
2022-10-23T04:49:01.698Z,21.40
2022-10-23T04:51:51.460Z,21.40
2022-10-23T04:54:45.209Z,21.40
2022-10-23T04:57:49.614Z,21.50
2022-10-23T05:00:31.956Z,21.50
2022-10-23T05:03:07.110Z,21.40
2022-10-23T05:05:47.296Z,21.50
2022-10-23T05:08:38.285Z,21.50
2022-10-23T05:11:39.858Z,21.50
2022-10-23T05:14:21.999Z,21.50
2022-10-23T05:19:42.987Z,21.50
2022-10-23T05:22:19.667Z,21.50
2022-10-23T05:25:03.622Z,21.50
2022-10-23T05:49:05.512Z,21.30
2022-10-23T06:17:52.791Z,21.00
2022-10-23T06:20:28.937Z,21.00
2022-10-23T06:26:21.929Z,20.90
2022-10-23T06:31:41.694Z,20.60
2022-10-23T06:34:20.655Z,20.80
2022-10-23T06:36:56.247Z,20.90
2022-10-23T06:51:11.375Z,20.60
2022-10-23T06:59:38.112Z,20.50
2022-10-23T07:02:15.422Z,20.50
2022-10-23T07:04:50.669Z,20.50
2022-10-23T07:07:30.503Z,20.50
2022-10-23T07:10:05.948Z,20.50
2022-10-23T07:12:50.541Z,20.50
2022-10-23T07:18:26.618Z,20.60
2022-10-23T07:21:19.660Z,20.60
2022-10-23T13:56:41.459Z,20.10
2022-10-23T13:59:17.464Z,20.00
2022-10-23T14:28:06.605Z,19.80
2022-10-23T14:30:42.707Z,19.80
2022-10-23T14:33:19.176Z,19.40
2022-10-23T14:35:56.081Z,19.10
2022-10-23T14:38:33.101Z,19.10
2022-10-23T14:41:16.025Z,18.90
2022-10-23T14:43:51.469Z,18.90
2022-10-23T14:46:29.609Z,18.80
2022-10-23T14:49:04.822Z,18.60
2022-10-23T14:51:39.997Z,18.50
2022-10-23T14:54:15.245Z,18.40
2022-10-23T14:56:52.194Z,18.40
2022-10-23T14:59:27.454Z,18.30
2022-10-23T15:02:05.952Z,18.30
2022-10-23T15:04:41.082Z,18.40
2022-10-23T15:07:16.484Z,18.40
2022-10-23T15:09:53.522Z,18.20
2022-10-23T15:12:30.682Z,18.30
2022-10-23T15:15:06.239Z,18.30
2022-10-23T15:17:45.970Z,18.40
2022-10-23T15:20:22.733Z,18.40
2022-10-23T15:22:57.911Z,18.50
2022-10-23T15:25:34.071Z,18.60
2022-10-23T15:28:11.222Z,18.60
2022-10-23T15:30:47.312Z,18.70
2022-10-23T15:33:22.915Z,18.60
2022-10-23T15:36:02.901Z,18.60
2022-10-23T15:38:38.388Z,18.70
2022-10-23T15:41:21.764Z,18.70
2022-10-23T15:43:59.170Z,18.70
2022-10-23T15:46:34.316Z,18.70
2022-10-23T15:49:10.122Z,18.80
2022-10-23T15:51:48.321Z,18.80
2022-10-23T15:54:26.050Z,18.80
2022-10-23T15:57:05.573Z,18.70
2022-10-23T15:59:42.631Z,18.70
2022-10-23T16:02:21.397Z,18.70
2022-10-23T16:04:56.701Z,18.60
2022-10-23T16:07:31.940Z,18.70
2022-10-23T16:10:07.141Z,18.70
2022-10-23T16:12:42.561Z,18.70
2022-10-23T16:15:20.277Z,18.70
2022-10-23T16:17:55.872Z,18.70
2022-10-23T16:20:30.953Z,18.60
2022-10-23T16:23:06.411Z,18.60
2022-10-23T16:25:42.665Z,18.60
2022-10-23T16:28:17.861Z,18.60
2022-10-23T16:30:55.180Z,18.60
2022-10-23T16:33:30.367Z,18.60
2022-10-23T16:36:08.743Z,18.60
2022-10-23T16:39:05.857Z,18.60
2022-10-23T16:41:59.178Z,18.60
2022-10-23T16:44:45.693Z,18.60
2022-10-23T16:47:23.094Z,18.60
2022-10-23T16:49:58.121Z,18.60
2022-10-23T16:52:33.566Z,18.60
2022-10-23T16:55:08.842Z,18.60
2022-10-23T16:57:45.005Z,18.60
2022-10-23T17:00:23.616Z,18.60
2022-10-23T17:03:00.508Z,18.60
2022-10-23T17:05:38.756Z,18.60
2022-10-23T17:08:14.349Z,18.60
2022-10-23T17:10:50.161Z,18.60
2022-10-23T17:13:25.751Z,18.60
2022-10-23T17:16:09.813Z,18.60
2022-10-23T17:18:50.683Z,18.60
2022-10-23T17:21:27.013Z,18.60
2022-10-23T17:26:39.633Z,18.70
2022-10-23T17:29:16.759Z,18.70
2022-10-23T17:31:53.831Z,18.70
2022-10-23T17:34:31.261Z,18.70
2022-10-23T17:37:07.280Z,18.70
2022-10-23T17:39:42.558Z,18.70
2022-10-23T17:42:17.759Z,18.60
2022-10-23T17:44:52.769Z,18.60
2022-10-23T17:47:27.771Z,18.60
2022-10-23T17:50:04.891Z,18.60
2022-10-23T17:52:40.860Z,18.60
2022-10-23T17:55:16.641Z,18.70
2022-10-23T17:57:52.123Z,18.80
2022-10-23T18:00:27.855Z,18.70
2022-10-23T18:03:03.373Z,18.70
2022-10-23T18:05:40.364Z,18.70
2022-10-23T18:08:18.991Z,18.80
2022-10-23T18:10:55.815Z,18.80
2022-10-23T18:13:34.099Z,18.80
2022-10-23T18:16:13.321Z,18.80
2022-10-23T18:18:49.795Z,18.80
2022-10-23T18:21:32.079Z,18.80
2022-10-23T18:24:07.716Z,18.80
2022-10-23T18:26:44.635Z,18.80
2022-10-23T18:29:21.149Z,18.80
2022-10-23T18:31:57.208Z,18.80
2022-10-23T18:34:33.158Z,18.80
2022-10-23T18:37:10.078Z,18.80
2022-10-23T18:39:45.366Z,18.80
2022-10-23T18:42:20.543Z,18.80
2022-10-23T18:44:55.743Z,18.80
2022-10-23T18:47:30.929Z,18.90
2022-10-23T18:50:07.881Z,18.80
2022-10-23T18:52:46.550Z,18.80
2022-10-23T18:55:21.819Z,18.80
2022-10-23T18:57:57.095Z,18.90
2022-10-23T19:00:32.524Z,18.90
2022-10-23T19:03:08.114Z,18.90
2022-10-23T19:05:46.160Z,18.80
2022-10-23T19:08:23.528Z,18.90
2022-10-23T19:11:01.833Z,18.90
2022-10-23T19:13:39.299Z,18.90
2022-10-23T19:16:20.515Z,18.90
2022-10-23T19:18:59.250Z,18.90
2022-10-23T19:21:44.544Z,18.70
2022-10-23T19:24:25.623Z,18.90
2022-10-23T19:27:05.168Z,18.90
2022-10-23T19:29:45.760Z,18.90
2022-10-23T19:32:21.519Z,18.90
2022-10-23T19:34:57.579Z,19.00
2022-10-23T19:37:32.605Z,19.00
2022-10-23T19:40:10.701Z,19.00
2022-10-23T19:42:46.982Z,19.00
2022-10-23T19:45:22.464Z,19.00
2022-10-23T19:47:57.535Z,19.00
2022-10-23T19:50:32.692Z,19.00
2022-10-23T19:53:07.745Z,19.00
2022-10-23T19:55:45.284Z,19.10
2022-10-23T19:58:20.451Z,19.10
2022-10-23T20:00:55.459Z,19.10
2022-10-23T20:03:30.751Z,19.10
2022-10-23T20:06:06.511Z,19.10
2022-10-23T20:08:42.043Z,19.10
2022-10-23T20:11:23.106Z,19.20
2022-10-23T20:13:59.084Z,19.20
2022-10-23T20:16:55.884Z,19.20
2022-10-23T20:19:31.959Z,19.30
2022-10-23T20:22:06.967Z,19.30
2022-10-23T20:24:43.907Z,19.30
2022-10-23T20:27:20.886Z,19.30
2022-10-23T20:29:56.099Z,19.30
2022-10-23T20:32:31.126Z,19.30
2022-10-23T20:35:06.128Z,19.40
2022-10-23T20:37:41.933Z,19.40
2022-10-23T20:40:17.408Z,19.40
2022-10-23T20:42:54.552Z,19.40
2022-10-23T20:45:29.747Z,19.30
2022-10-23T20:48:04.981Z,19.20
2022-10-23T20:50:40.884Z,19.20
2022-10-23T20:53:15.943Z,19.20
2022-10-23T20:55:53.721Z,19.20
2022-10-23T20:58:31.630Z,19.20
2022-10-23T21:01:11.538Z,19.30
2022-10-23T21:03:47.206Z,19.30
2022-10-23T21:06:22.562Z,19.30
2022-10-23T21:09:02.230Z,19.30
2022-10-23T21:11:37.849Z,19.30
2022-10-23T21:14:15.169Z,19.40
2022-10-23T21:16:50.930Z,19.40
2022-10-23T21:19:26.394Z,19.40
2022-10-23T21:22:01.845Z,19.40
2022-10-23T21:24:38.185Z,19.30
2022-10-23T21:27:13.667Z,19.30
2022-10-23T21:29:50.840Z,19.30
2022-10-23T21:32:29.277Z,19.30
2022-10-23T21:35:04.528Z,19.40
2022-10-23T21:37:39.766Z,19.40
2022-10-23T21:40:16.011Z,19.40
2022-10-23T21:42:51.495Z,19.30
2022-10-23T21:45:28.592Z,19.40
2022-10-23T21:48:03.607Z,19.30
2022-10-23T21:50:39.171Z,19.40
2022-10-23T21:53:14.182Z,19.40
2022-10-23T21:55:49.347Z,19.40
2022-10-23T21:58:25.979Z,19.40
2022-10-23T22:01:03.165Z,19.40
2022-10-23T22:03:38.709Z,19.40
2022-10-23T22:06:19.713Z,19.40
2022-10-23T22:08:54.975Z,19.40
2022-10-23T22:11:30.877Z,19.30
2022-10-23T22:14:06.545Z,19.30
2022-10-23T22:16:45.278Z,19.30
2022-10-23T22:19:39.294Z,19.30
2022-10-23T22:22:14.886Z,19.30
2022-10-23T22:24:50.421Z,19.30
2022-10-23T22:27:26.564Z,19.40
2022-10-23T22:30:05.477Z,19.30
2022-10-23T22:32:43.389Z,19.30
2022-10-23T22:35:18.635Z,19.30
2022-10-23T22:37:53.838Z,19.30
2022-10-23T22:40:28.854Z,19.30
2022-10-23T22:43:05.603Z,19.30
2022-10-23T22:45:40.835Z,19.30
2022-10-23T22:48:17.810Z,19.30
2022-10-23T22:50:52.842Z,19.20
2022-10-23T22:53:28.038Z,19.30
2022-10-23T22:56:03.733Z,19.30
2022-10-23T22:58:39.482Z,19.40
2022-10-23T23:01:18.389Z,19.40
2022-10-23T23:03:58.210Z,19.40
2022-10-23T23:06:38.574Z,19.40
2022-10-23T23:09:17.002Z,19.40
2022-10-23T23:11:53.399Z,19.40
2022-10-23T23:14:28.534Z,19.40
2022-10-23T23:17:03.519Z,19.40
2022-10-23T23:19:40.437Z,19.30
2022-10-23T23:22:16.705Z,19.30
2022-10-23T23:24:51.968Z,19.40
2022-10-23T23:27:28.768Z,19.40
2022-10-23T23:30:04.041Z,19.40
2022-10-23T23:32:39.050Z,19.50
2022-10-23T23:35:16.528Z,19.50
2022-10-23T23:37:53.300Z,19.40
2022-10-23T23:40:28.508Z,19.50
2022-10-23T23:43:03.710Z,19.40
2022-10-23T23:45:39.208Z,19.40
2022-10-23T23:48:14.183Z,19.20
2022-10-23T23:50:51.169Z,19.50
2022-10-23T23:53:26.419Z,19.40
2022-10-23T23:56:01.967Z,19.40
2022-10-23T23:58:37.824Z,19.40
